createdAt,value
2022-07-25T00:02:51.053Z,54.13
2022-07-25T00:08:23.003Z,53.91
2022-07-25T00:13:54.333Z,54.03
2022-07-25T00:19:25.859Z,54.98
2022-07-25T00:24:57.533Z,55.54
2022-07-25T00:30:29.340Z,55.71
2022-07-25T00:36:01.473Z,55.58
2022-07-25T00:41:33.297Z,55.70
2022-07-25T00:47:05.437Z,55.98
2022-07-25T00:52:36.921Z,56.52
2022-07-25T00:58:08.568Z,56.67
2022-07-25T03:04:20.638Z,62.92
2022-07-25T03:09:52.395Z,62.84
2022-07-25T03:15:24.248Z,63.54
2022-07-25T03:20:56.127Z,63.57
2022-07-25T03:26:28.012Z,63.28
2022-07-25T03:31:59.801Z,63.22
2022-07-25T03:37:31.561Z,63.18
2022-07-25T03:43:03.366Z,63.11
2022-07-25T03:48:35.363Z,63.40
2022-07-25T03:54:07.927Z,63.52
2022-07-25T03:59:39.497Z,63.77
2022-07-25T04:05:11.565Z,63.65
2022-07-25T04:10:43.046Z,63.47
2022-07-25T04:16:15.098Z,63.05
2022-07-25T04:21:46.803Z,62.82
2022-07-25T04:27:18.514Z,61.72
2022-07-25T04:32:50.325Z,61.22
2022-07-25T04:38:21.956Z,60.02
2022-07-25T04:43:53.864Z,59.37
2022-07-25T04:49:25.442Z,58.02
2022-07-25T04:54:57.471Z,57.05
2022-07-25T05:00:29.579Z,55.41
2022-07-25T05:06:01.399Z,54.28
2022-07-25T05:11:33.100Z,52.32
2022-07-25T05:17:04.821Z,51.32
2022-07-25T05:22:36.715Z,51.57
2022-07-25T05:28:08.436Z,51.98
2022-07-25T05:33:40.139Z,52.63
2022-07-25T05:39:11.991Z,52.99
2022-07-25T05:44:43.637Z,53.77
2022-07-25T05:50:15.562Z,54.03
2022-07-25T05:55:47.389Z,53.88
2022-07-25T06:01:19.148Z,52.67
2022-07-25T06:06:50.878Z,50.08
2022-07-25T06:12:24.252Z,48.47
2022-07-25T06:17:54.217Z,46.20
2022-07-25T06:23:27.774Z,44.85
2022-07-25T06:28:57.680Z,42.71
2022-07-25T06:34:29.101Z,41.07
2022-07-25T06:40:01.066Z,39.51
2022-07-25T06:45:32.721Z,38.72
2022-07-25T06:51:04.518Z,37.26
2022-07-25T06:53:15.874Z,36.81
2022-07-25T07:04:16.500Z,34.64
2022-07-25T07:09:47.997Z,34.31
2022-07-25T07:15:20.235Z,33.03
2022-07-25T07:20:51.804Z,32.71
2022-07-25T07:26:23.603Z,31.85
2022-07-25T07:31:57.618Z,31.86
2022-07-25T07:37:33.677Z,31.59
2022-07-25T07:43:00.895Z,31.06
2022-07-25T07:48:33.015Z,30.32
2022-07-25T07:54:04.458Z,30.28
2022-07-25T07:59:36.438Z,29.55
2022-07-25T08:10:37.300Z,29.45
2022-07-25T08:16:09.164Z,29.15
2022-07-25T08:23:59.936Z,0.00
2022-07-25T08:35:01.333Z,29.02
2022-07-25T08:40:33.178Z,29.38
2022-07-25T08:46:04.987Z,29.27
2022-07-25T08:51:36.763Z,28.79
2022-07-25T08:57:08.501Z,28.74
2022-07-25T09:02:40.458Z,28.67
2022-07-25T09:13:41.092Z,28.23
2022-07-25T09:19:13.591Z,28.21
2022-07-25T09:24:45.360Z,28.17
2022-07-25T09:30:17.145Z,28.16
2022-07-25T09:35:48.892Z,28.20
2022-07-25T09:41:20.380Z,28.53
2022-07-25T09:46:51.935Z,28.15
2022-07-25T09:52:23.485Z,28.50
2022-07-25T09:58:17.411Z,0.00
2022-07-25T10:03:49.456Z,29.54
2022-07-25T10:09:21.216Z,30.57
2022-07-25T10:14:52.682Z,30.84
2022-07-25T10:20:24.106Z,31.64
2022-07-25T10:25:55.836Z,31.85
2022-07-25T10:31:27.608Z,31.06
2022-07-25T10:36:59.148Z,31.11
2022-07-25T10:42:30.880Z,30.76
2022-07-25T10:48:02.803Z,30.73
2022-07-25T10:53:34.396Z,30.94
2022-07-25T10:59:06.364Z,30.94
2022-07-25T11:04:37.990Z,30.29
2022-07-25T11:10:09.697Z,30.63
2022-07-25T11:15:41.635Z,29.84
2022-07-25T11:21:13.348Z,30.17
2022-07-25T11:26:45.185Z,28.61
2022-07-25T11:32:17.191Z,28.17
2022-07-25T11:37:49.005Z,28.27
2022-07-25T11:43:20.522Z,28.29
2022-07-25T11:48:52.414Z,27.74
2022-07-25T11:54:24.238Z,27.71
2022-07-25T11:59:56.023Z,26.99
2022-07-25T12:05:27.721Z,27.40
2022-07-25T12:10:59.552Z,27.65
2022-07-25T12:16:31.320Z,27.75
2022-07-25T12:22:03.183Z,28.04
2022-07-25T12:27:34.967Z,28.09
2022-07-25T12:33:06.827Z,28.39
2022-07-25T12:38:38.648Z,28.14
2022-07-25T12:44:10.147Z,27.98
2022-07-25T12:49:41.814Z,28.27
2022-07-25T12:55:13.511Z,28.37
2022-07-25T13:00:45.208Z,28.48
2022-07-25T13:06:17.303Z,28.78
2022-07-25T13:11:48.896Z,28.99
2022-07-25T13:17:26.514Z,28.77
2022-07-25T13:22:52.215Z,28.88
2022-07-25T13:28:23.926Z,28.52
2022-07-25T13:33:55.813Z,28.36
2022-07-25T13:39:27.231Z,27.98
2022-07-25T13:44:58.837Z,27.56
2022-07-25T13:50:30.515Z,27.63
2022-07-25T13:56:02.008Z,27.80
2022-07-25T14:01:33.923Z,28.23
2022-07-25T14:07:05.112Z,28.52
2022-07-25T14:18:08.297Z,27.85
2022-07-25T14:23:40.120Z,27.50
2022-07-25T14:29:11.757Z,27.67
2022-07-25T14:34:43.330Z,28.03
2022-07-25T14:40:15.113Z,27.99
2022-07-25T14:45:46.800Z,27.96
2022-07-25T14:51:18.813Z,28.49
2022-07-25T14:56:50.360Z,28.55
2022-07-25T15:02:21.698Z,28.84
2022-07-25T15:07:53.637Z,28.90
2022-07-25T15:13:31.435Z,27.30
2022-07-25T15:24:29.518Z,27.90
2022-07-25T15:35:30.882Z,26.67
2022-07-25T15:41:02.435Z,27.08
2022-07-25T15:46:34.131Z,26.54
2022-07-25T15:52:05.522Z,26.84
2022-07-25T15:57:37.056Z,26.94
2022-07-25T16:03:14.360Z,27.29
2022-07-25T16:08:46.140Z,27.83
2022-07-25T16:14:17.850Z,27.87
2022-07-25T16:19:49.386Z,28.16
2022-07-25T16:25:20.961Z,28.04
2022-07-25T16:30:52.833Z,28.47
2022-07-25T16:41:56.525Z,29.00
2022-07-25T16:47:28.382Z,29.08
2022-07-25T16:52:59.873Z,29.57
2022-07-25T16:58:31.612Z,29.70
2022-07-25T17:04:03.440Z,29.96
2022-07-25T17:09:35.363Z,30.01
2022-07-25T17:15:07.499Z,30.35
2022-07-25T17:20:39.224Z,30.48
2022-07-25T17:26:10.996Z,30.96
2022-07-25T17:31:42.512Z,31.15
2022-07-25T17:37:14.299Z,31.47
2022-07-25T17:42:47.988Z,31.66
2022-07-25T17:53:49.603Z,31.93
2022-07-25T18:10:22.807Z,32.98
2022-07-25T18:15:54.918Z,33.43
2022-07-25T18:21:26.330Z,34.25
2022-07-25T18:26:58.131Z,35.04
2022-07-25T18:32:29.637Z,36.05
2022-07-25T18:49:00.703Z,37.55
2022-07-25T18:54:32.469Z,38.09
2022-07-25T19:00:04.103Z,38.45
2022-07-25T19:05:36.065Z,39.10
2022-07-25T19:11:07.349Z,39.40
2022-07-25T19:16:39.214Z,40.27
2022-07-25T19:27:40.345Z,41.09
2022-07-25T19:33:11.937Z,41.44
2022-07-25T19:38:43.924Z,41.51
2022-07-25T19:49:45.193Z,42.14
2022-07-25T19:55:17.259Z,41.82
2022-07-25T20:00:49.297Z,41.82
2022-07-25T20:14:14.781Z,0.00
2022-07-25T20:19:47.702Z,42.78
2022-07-25T20:25:19.889Z,43.39
2022-07-25T20:30:52.452Z,46.22
2022-07-25T20:36:24.487Z,50.77
2022-07-25T20:41:56.517Z,56.37
2022-07-25T20:47:28.520Z,59.88
2022-07-25T20:53:00.330Z,62.53
2022-07-25T21:04:07.048Z,62.30
2022-07-25T21:09:33.801Z,67.67
2022-07-25T21:17:27.186Z,0.00
2022-07-25T21:22:59.473Z,66.37
2022-07-25T21:28:31.212Z,69.11
2022-07-25T21:34:03.138Z,69.27
2022-07-25T21:39:35.051Z,69.01
2022-07-25T21:45:06.561Z,71.41
2022-07-25T21:50:42.172Z,71.80
2022-07-25T21:56:10.169Z,70.35
2022-07-25T22:01:42.107Z,70.49
2022-07-25T22:07:13.736Z,69.89
2022-07-25T22:12:45.978Z,71.04
2022-07-25T22:18:17.826Z,71.49
2022-07-25T22:23:49.641Z,71.71
2022-07-25T22:29:21.258Z,71.44
2022-07-25T22:34:53.027Z,71.68
2022-07-25T22:40:24.964Z,72.61
2022-07-25T22:45:57.047Z,72.97
2022-07-25T22:51:28.482Z,73.22
2022-07-25T22:57:00.691Z,72.99
2022-07-25T23:02:32.320Z,73.12
2022-07-25T23:13:33.523Z,73.16
2022-07-25T23:24:37.770Z,73.45
2022-07-25T23:30:06.874Z,74.91
2022-07-25T23:35:39.116Z,75.23
2022-07-25T23:41:10.758Z,75.36
2022-07-25T23:52:12.164Z,75.83
2022-07-25T23:57:43.773Z,75.68
